Time;durP1;ratioP1;P1;durP2;ratioP2;P2;SDS_P1;SDS_P2;PMS_P1;PMS_P2;Temp;Humidity;BMP_temperature;BMP_pressure;BME280_temperature;BME280_humidity;BME280_pressure;Samples;Min_cycle;Max_cycle;Signal;HPM_P1;HPM_P2
2022/06/06 00:01:16;;;;;;;6.80;6.10;;;;;;;19.51;57.53;100567.88;4848568;29;20041;-80
2022/06/06 00:03:44;;;;;;;6.70;5.60;;;;;;;19.61;57.09;100563.72;4834269;29;20057;-79
2022/06/06 00:06:15;;;;;;;6.47;5.80;;;;;;;19.67;56.60;100557.97;4814967;29;20116;-79
2022/06/06 00:08:41;;;;;;;6.35;5.75;;;;;;;19.66;56.72;100556.25;4828740;29;20046;-78
2022/06/06 00:11:09;;;;;;;7.10;5.78;;;;;;;19.61;57.04;100559.22;4831094;29;20049;-79
2022/06/06 00:13:42;;;;;;;6.50;5.70;;;;;;;19.61;56.82;100555.69;4830225;29;20111;-80
2022/06/06 00:16:10;;;;;;;6.05;5.13;;;;;;;19.64;56.49;100550.13;4838630;29;20516;-79
2022/06/06 00:18:37;;;;;;;6.00;5.35;;;;;;;19.66;56.41;100551.75;4826920;29;20041;-78
2022/06/06 00:21:07;;;;;;;6.65;5.95;;;;;;;19.68;55.88;100559.72;4837123;29;20040;-78
2022/06/06 00:23:34;;;;;;;6.80;5.82;;;;;;;19.73;56.48;100544.22;4829069;29;20057;-79
2022/06/06 00:26:05;;;;;;;6.20;5.60;;;;;;;19.69;56.73;100540.00;4842411;29;20082;-79
2022/06/06 00:28:32;;;;;;;7.35;5.63;;;;;;;19.73;56.38;100533.50;4837837;29;20110;-78
2022/06/06 00:34:48;;;;;;;6.25;5.65;;;;;;;19.68;56.70;100536.47;4858774;29;20049;-79
2022/06/06 00:36:32;;;;;;;8.35;6.22;;;;;;;19.67;56.07;100534.75;4845063;29;20049;-78
2022/06/06 00:38:58;;;;;;;5.80;5.30;;;;;;;19.65;56.85;100528.59;4843998;29;20045;-78
2022/06/06 00:41:25;;;;;;;6.65;5.78;;;;;;;19.62;56.60;100528.78;4831014;29;20049;-79
2022/06/06 00:44:05;;;;;;;6.13;5.45;;;;;;;19.61;56.36;100524.38;4845673;29;20054;-79
2022/06/06 00:46:34;;;;;;;6.78;6.03;;;;;;;19.65;57.49;100531.28;4860198;29;20045;-77
2022/06/06 00:49:02;;;;;;;6.20;5.60;;;;;;;19.64;56.27;100516.16;4842880;29;20096;-79
2022/06/06 00:51:30;;;;;;;7.32;6.00;;;;;;;19.64;56.21;100518.81;4841804;29;20046;-79
2022/06/06 00:53:57;;;;;;;7.15;5.88;;;;;;;19.63;56.22;100521.59;4817186;29;20060;-79
2022/06/06 00:56:34;;;;;;;6.32;5.72;;;;;;;19.54;56.62;100520.31;4827420;29;20056;-79
2022/06/06 00:59:04;;;;;;;5.80;5.30;;;;;;;19.55;57.09;100516.66;4839987;29;20057;-79
2022/06/06 01:01:34;;;;;;;6.13;5.38;;;;;;;19.58;56.67;100515.66;4847723;29;20242;-80
2022/06/06 01:04:04;;;;;;;6.00;5.50;;;;;;;19.53;56.79;100510.56;4836510;29;20296;-79
2022/06/06 01:06:34;;;;;;;6.10;5.50;;;;;;;19.48;57.49;100514.44;4853968;29;20067;-79
2022/06/06 01:09:01;;;;;;;6.88;6.28;;;;;;;19.50;56.64;100505.34;4850471;29;20041;-79
2022/06/06 01:11:28;;;;;;;6.63;5.57;;;;;;;19.55;56.89;100514.00;4831007;29;20077;-79
2022/06/06 01:13:56;;;;;;;6.28;5.68;;;;;;;19.50;56.56;100512.53;4847074;29;20125;-79
2022/06/06 01:16:44;;;;;;;6.97;6.30;;;;;;;19.51;56.85;100511.59;4859424;29;20056;-78
2022/06/06 01:19:33;;;;;;;6.70;6.10;;;;;;;19.50;56.85;100508.03;4866730;29;20051;-79
2022/06/06 01:22:12;;;;;;;6.88;6.18;;;;;;;19.53;57.15;100505.19;4851977;29;20041;-79
2022/06/06 01:24:54;;;;;;;6.78;6.10;;;;;;;19.46;57.71;100519.91;4844624;29;20120;-78
2022/06/06 01:27:33;;;;;;;6.30;5.70;;;;;;;19.44;57.41;100508.41;4841816;29;20500;-79
2022/06/06 01:30:06;;;;;;;5.57;5.07;;;;;;;19.37;57.55;100499.88;4840155;29;20049;-79
2022/06/06 01:32:45;;;;;;;6.20;5.60;;;;;;;19.35;58.37;100506.28;4818627;29;20042;-79
2022/06/06 01:35:22;;;;;;;6.50;5.80;;;;;;;19.29;58.32;100510.19;4822486;29;20427;-78
2022/06/06 01:37:48;;;;;;;6.90;6.05;;;;;;;19.33;58.38;100498.31;4855159;29;20101;-79
2022/06/06 01:40:16;;;;;;;6.30;5.70;;;;;;;19.28;57.92;100499.56;4822990;29;20098;-79
2022/06/06 01:43:01;;;;;;;6.60;6.00;;;;;;;19.22;58.71;100506.13;4842442;29;20502;-79
2022/06/06 01:45:40;;;;;;;6.72;5.32;;;;;;;19.17;58.74;100502.00;4850831;29;20395;-79
2022/06/06 01:48:11;;;;;;;8.15;5.78;;;;;;;19.13;59.08;100495.97;4845387;29;20045;-79
2022/06/06 01:50:38;;;;;;;6.75;6.05;;;;;;;19.17;59.60;100500.22;4838820;29;20403;-79
2022/06/06 01:53:17;;;;;;;8.15;6.53;;;;;;;19.12;59.53;100492.44;4830676;29;20053;-79
2022/06/06 01:55:46;;;;;;;6.93;5.95;;;;;;;19.08;59.48;100498.91;4825103;29;20118;-79
2022/06/06 01:58:22;;;;;;;7.35;6.10;;;;;;;19.03;59.83;100495.66;4831545;29;20097;-79
2022/06/06 02:00:49;;;;;;;6.35;5.68;;;;;;;19.02;59.66;100498.41;4850404;29;20041;-79
2022/06/06 02:03:16;;;;;;;6.60;6.00;;;;;;;19.02;59.46;100496.59;4825993;29;20510;-79
2022/06/06 02:05:43;;;;;;;6.60;6.00;;;;;;;19.03;60.61;100492.09;4822178;29;20109;-79
2022/06/06 02:08:10;;;;;;;6.95;5.85;;;;;;;19.01;60.44;100494.88;4856839;29;20041;-79
2022/06/06 02:10:37;;;;;;;7.00;6.40;;;;;;;19.02;60.51;100498.41;4839124;29;20045;-79
2022/06/06 02:13:04;;;;;;;6.60;5.97;;;;;;;18.98;60.15;100503.06;4840746;29;20109;-78
2022/06/06 02:15:31;;;;;;;6.40;5.80;;;;;;;18.93;61.26;100494.47;4820263;29;20049;-79
2022/06/06 02:17:58;;;;;;;7.25;6.55;;;;;;;18.94;61.97;100498.84;4821855;29;20076;-79
2022/06/06 02:20:27;;;;;;;7.65;6.70;;;;;;;18.88;65.97;100501.03;4856198;29;20042;-79
2022/06/06 02:22:54;;;;;;;7.60;6.72;;;;;;;18.73;66.88;100494.72;4863355;29;20037;-79
2022/06/06 02:25:21;;;;;;;7.63;6.90;;;;;;;18.60;69.33;100494.53;4841049;29;20046;-79
2022/06/06 02:27:48;;;;;;;6.80;6.15;;;;;;;18.52;70.55;100497.63;4839774;29;20041;-78
2022/06/06 02:30:19;;;;;;;6.22;5.72;;;;;;;18.34;69.81;100504.00;4839464;29;20332;-78
2022/06/06 02:32:46;;;;;;;6.68;6.03;;;;;;;18.19;71.14;100497.69;4824916;29;20056;-79
2022/06/06 02:35:17;;;;;;;6.95;6.30;;;;;;;18.15;73.30;100504.13;4805053;29;20133;-79
2022/06/06 02:37:45;;;;;;;7.53;6.82;;;;;;;18.10;75.18;100508.88;4843469;29;20180;-78
2022/06/06 02:40:15;;;;;;;7.05;6.22;;;;;;;18.02;74.45;100510.25;4842487;29;20045;-79
2022/06/06 02:42:42;;;;;;;6.95;6.35;;;;;;;18.05;74.72;100510.06;4826426;29;20419;-78
2022/06/06 02:45:10;;;;;;;7.00;6.40;;;;;;;17.97;75.13;100507.81;4832238;29;20068;-78
2022/06/06 02:47:37;;;;;;;7.55;6.85;;;;;;;17.90;75.47;100514.41;4821701;29;20113;-78
2022/06/06 02:50:06;;;;;;;7.15;6.45;;;;;;;17.85;76.98;100513.81;4832168;29;20072;-78
2022/06/06 02:52:33;;;;;;;7.22;6.45;;;;;;;17.92;75.53;100512.56;4849035;29;20060;-78
2022/06/06 02:55:01;;;;;;;8.60;7.05;;;;;;;17.97;72.71;100514.00;4837846;29;20045;-79
2022/06/06 02:57:28;;;;;;;7.10;6.45;;;;;;;17.85;73.04;100512.00;4837391;29;20041;-79
2022/06/06 02:59:55;;;;;;;7.25;6.63;;;;;;;17.85;73.37;100517.34;4847005;29;20046;-79
2022/06/06 03:02:23;;;;;;;6.90;6.30;;;;;;;17.77;74.20;100518.69;4840514;29;20057;-78
2022/06/06 03:04:49;;;;;;;6.90;6.30;;;;;;;17.77;76.93;100527.56;4809944;29;20490;-79
2022/06/06 03:07:38;;;;;;;8.32;7.10;;;;;;;17.72;79.19;100525.13;4839588;29;20238;-79
2022/06/06 03:10:29;;;;;;;7.00;6.30;;;;;;;17.60;81.09;100538.25;4850521;29;20034;-79
2022/06/06 03:13:05;;;;;;;7.45;6.65;;;;;;;17.54;84.42;100536.75;4842582;29;20102;-79
2022/06/06 03:22:09;;;;;;;9.00;7.88;;;;;;;17.28;99.13;100548.75;4820788;29;20049;-80
2022/06/06 03:24:54;;;;;;;8.07;7.30;;;;;;;17.04;100.00;100548.16;4834201;29;20065;-79
2022/06/06 03:27:46;;;;;;;9.30;7.82;;;;;;;16.56;100.00;100537.97;4823635;29;20049;-80
2022/06/06 03:30:22;;;;;;;8.32;7.53;;;;;;;16.32;100.00;100535.56;4826399;29;20633;-79
2022/06/06 03:33:04;;;;;;;10.38;8.48;;;;;;;16.11;100.00;100540.97;4828014;29;20125;-79
2022/06/06 03:35:48;;;;;;;10.25;9.15;;;;;;;15.90;100.00;100542.81;4867829;29;20958;-79
2022/06/06 03:38:35;;;;;;;9.48;8.48;;;;;;;15.91;100.00;100540.09;4851642;29;20498;-79
2022/06/06 03:41:11;;;;;;;11.00;9.90;;;;;;;15.92;100.00;100543.63;4894598;23;20053;-79
2022/06/06 03:44:24;;;;;;;12.10;10.68;;;;;;;15.92;100.00;100549.81;4860557;29;20052;-78
2022/06/06 03:47:18;;;;;;;12.60;10.77;;;;;;;15.71;100.00;100546.25;4838525;29;20056;-79
2022/06/06 03:49:49;;;;;;;;;;;;;;;15.63;100.00;100567.03;4879383;29;20116;-79
2022/06/06 03:52:22;;;;;;;11.85;10.25;;;;;;;15.62;100.00;100562.66;4859666;29;19996;-79
2022/06/06 03:54:54;;;;;;;11.77;10.57;;;;;;;15.69;100.00;100557.94;4849558;29;20050;-79
2022/06/06 03:57:25;;;;;;;13.77;10.55;;;;;;;15.69;100.00;100563.25;4856980;29;20057;-78
2022/06/06 03:59:58;;;;;;;12.10;10.80;;;;;;;15.61;100.00;100560.06;4852111;29;20091;-79
2022/06/06 04:02:31;;;;;;;14.00;10.55;;;;;;;15.61;100.00;100562.72;4839090;29;20196;-78
2022/06/06 04:05:01;;;;;;;11.90;10.70;;;;;;;15.57;100.00;100566.41;4834291;29;20124;-79
2022/06/06 04:07:27;;;;;;;11.98;10.50;;;;;;;15.52;100.00;100568.41;4862031;29;20087;-78
2022/06/06 04:09:54;;;;;;;12.52;11.30;;;;;;;15.49;100.00;100575.59;4859234;29;20100;-77
2022/06/06 04:12:27;;;;;;;11.88;10.73;;;;;;;15.46;100.00;100570.38;4852892;29;20068;-79
2022/06/06 04:15:15;;;;;;;11.40;10.10;;;;;;;15.43;100.00;100572.31;4873810;29;20510;-79
2022/06/06 04:17:56;;;;;;;12.77;10.73;;;;;;;15.42;100.00;100578.56;4877332;29;20052;-79
2022/06/06 04:20:30;;;;;;;12.20;11.00;;;;;;;15.43;100.00;100581.16;4843325;29;20410;-80
2022/06/06 04:23:06;;;;;;;12.07;10.88;;;;;;;15.41;100.00;100582.19;4842865;29;20038;-79
2022/06/06 04:25:48;;;;;;;13.07;11.35;;;;;;;15.42;100.00;100587.44;4842790;29;20045;-80
2022/06/06 04:29:04;;;;;;;12.48;11.10;;;;;;;15.47;100.00;100581.94;4848599;29;20039;-79
2022/06/06 04:31:39;;;;;;;14.35;11.30;;;;;;;15.52;100.00;100585.25;4860326;29;20200;-78
2022/06/06 04:34:26;;;;;;;14.27;12.50;;;;;;;15.56;100.00;100589.53;4866496;29;20053;-77
2022/06/06 04:37:05;;;;;;;13.55;11.88;;;;;;;15.55;100.00;100584.22;4864683;29;20053;-80
2022/06/06 04:40:12;;;;;;;15.55;13.95;;;;;;;15.48;100.00;100581.00;4873995;29;20064;-80
2022/06/06 04:42:58;;;;;;;16.63;14.10;;;;;;;15.43;100.00;100588.28;4887450;29;20049;-81
2022/06/06 04:45:52;;;;;;;16.25;13.85;;;;;;;15.46;100.00;100593.47;4832741;29;20049;-81
2022/06/06 04:48:19;;;;;;;16.33;14.18;;;;;;;15.42;100.00;100591.88;4880715;29;20723;-79
2022/06/06 04:50:55;;;;;;;14.90;13.23;;;;;;;15.41;100.00;100592.81;4842993;29;20041;-81
2022/06/06 04:53:24;;;;;;;15.38;13.70;;;;;;;15.41;100.00;100582.19;4854457;29;20136;-80
2022/06/06 04:55:51;;;;;;;16.08;14.18;;;;;;;15.46;100.00;100590.81;4859848;29;20071;-79
2022/06/06 04:58:19;;;;;;;20.35;15.63;;;;;;;15.53;100.00;100594.97;4858114;29;20073;-80
2022/06/06 05:00:45;;;;;;;17.95;15.05;;;;;;;15.54;100.00;100598.47;4840259;29;20310;-81
2022/06/06 05:03:15;;;;;;;17.15;14.40;;;;;;;15.53;100.00;100599.41;4846084;29;20495;-81
2022/06/06 05:06:25;;;;;;;18.00;15.73;;;;;;;15.61;100.00;100600.00;4861130;29;20049;-80
2022/06/06 05:09:22;;;;;;;18.17;15.88;;;;;;;15.66;100.00;100604.22;4849460;29;20276;-80
2022/06/06 05:12:05;;;;;;;17.92;16.05;;;;;;;15.66;100.00;100600.69;4875857;29;20323;-79
2022/06/06 05:14:45;;;;;;;18.45;16.45;;;;;;;15.67;100.00;100595.28;4870987;29;20502;-79
2022/06/06 05:17:36;;;;;;;18.05;15.77;;;;;;;15.64;100.00;100600.75;4841126;29;20064;-80
2022/06/06 05:20:25;;;;;;;20.92;17.30;;;;;;;15.66;100.00;100604.22;4878944;29;20041;-79
2022/06/06 05:23:02;;;;;;;17.65;15.75;;;;;;;15.67;100.00;100600.59;4860773;29;20052;-79
2022/06/06 05:25:41;;;;;;;15.60;14.00;;;;;;;15.70;100.00;100605.78;4875127;29;20049;-80
2022/06/06 05:28:21;;;;;;;16.65;14.68;;;;;;;15.75;100.00;100603.81;4848668;29;20450;-78
2022/06/06 05:30:54;;;;;;;20.27;17.80;;;;;;;15.85;100.00;100620.28;4847209;29;20074;-80
2022/06/06 05:33:31;;;;;;;17.85;15.77;;;;;;;15.87;100.00;100618.41;4873274;29;20045;-79
2022/06/06 05:36:14;;;;;;;19.73;16.48;;;;;;;15.91;100.00;100613.81;4851550;29;20036;-79
2022/06/06 05:38:51;;;;;;;18.42;16.08;;;;;;;15.96;100.00;100625.13;4845379;29;20072;-79
2022/06/06 05:41:25;;;;;;;17.75;15.85;;;;;;;15.98;100.00;100624.16;4843705;29;20053;-78
2022/06/06 05:44:15;;;;;;;21.50;15.88;;;;;;;16.01;100.00;100616.00;4867252;29;20045;-80
2022/06/06 05:47:17;;;;;;;18.88;16.75;;;;;;;16.05;100.00;100630.91;4860301;29;20068;-80
2022/06/06 05:49:46;;;;;;;19.10;17.05;;;;;;;16.07;100.00;100635.34;4843250;29;20068;-79
2022/06/06 05:52:14;;;;;;;19.35;17.25;;;;;;;16.12;100.00;100633.31;4857480;29;20084;-80
2022/06/06 05:55:03;;;;;;;19.60;17.58;;;;;;;16.13;100.00;100638.56;4856781;29;20108;-80
2022/06/06 05:57:39;;;;;;;18.98;16.98;;;;;;;16.15;100.00;100644.72;4866935;29;20041;-79
2022/06/06 06:00:27;;;;;;;20.40;17.58;;;;;;;16.21;100.00;100638.25;4870500;29;20108;-79
2022/06/06 06:03:12;;;;;;;20.15;17.88;;;;;;;16.25;100.00;100638.06;4879662;29;20072;-78
2022/06/06 06:05:55;;;;;;;20.35;17.90;;;;;;;16.26;100.00;100653.13;4892468;29;20040;-78
2022/06/06 06:08:36;;;;;;;18.08;16.27;;;;;;;16.30;100.00;100659.16;4879744;29;20045;-79
2022/06/06 06:11:17;;;;;;;22.70;19.05;;;;;;;16.34;100.00;100668.78;4861000;29;20093;-78
2022/06/06 06:14:06;;;;;;;20.88;18.08;;;;;;;16.40;100.00;100671.19;4855804;29;20530;-78
2022/06/06 06:16:42;;;;;;;20.52;18.35;;;;;;;16.42;100.00;100671.09;4848059;29;20048;-78
2022/06/06 06:19:13;;;;;;;20.92;18.70;;;;;;;16.51;100.00;100666.22;4884409;29;20078;-78
2022/06/06 06:21:44;;;;;;;21.98;19.55;;;;;;;16.60;100.00;100673.81;4873628;29;20611;-79
2022/06/06 06:24:17;;;;;;;20.77;17.73;;;;;;;16.72;100.00;100679.53;4873555;29;21014;-79
2022/06/06 06:26:45;;;;;;;17.95;16.05;;;;;;;16.84;100.00;100681.66;4869527;29;20074;-78
2022/06/06 06:29:15;;;;;;;22.85;19.95;;;;;;;17.06;100.00;100679.72;4861251;29;20057;-79
2022/06/06 06:32:15;;;;;;;21.42;19.25;;;;;;;17.20;100.00;100681.75;4884868;29;20033;-78
2022/06/06 06:35:12;;;;;;;21.45;18.73;;;;;;;17.39;100.00;100677.25;4867123;29;20073;-79
2022/06/06 06:38:07;;;;;;;21.95;19.65;;;;;;;17.65;100.00;100685.78;4855469;29;20037;-78
2022/06/06 06:41:03;;;;;;;24.60;19.10;;;;;;;17.79;100.00;100682.47;4881850;29;20125;-79
2022/06/06 06:43:53;;;;;;;20.77;17.67;;;;;;;17.84;100.00;100681.31;4855582;29;20033;-78
2022/06/06 06:46:23;;;;;;;19.52;17.60;;;;;;;17.95;100.00;100678.09;4897976;29;20462;-78
2022/06/06 06:48:52;;;;;;;19.92;17.83;;;;;;;18.19;100.00;100689.34;4881147;29;20301;-77
2022/06/06 06:51:45;;;;;;;20.05;18.00;;;;;;;18.35;100.00;100694.78;4872135;29;20067;-77
2022/06/06 06:54:26;;;;;;;19.48;17.48;;;;;;;18.47;100.00;100704.81;4873695;29;20041;-79
2022/06/06 06:57:29;;;;;;;18.02;16.13;;;;;;;18.66;100.00;100696.72;4890246;29;20045;-78
2022/06/06 07:00:15;;;;;;;17.45;15.48;;;;;;;18.81;100.00;100698.56;4845812;29;20093;-79
2022/06/06 07:08:55;;;;;;;17.63;15.88;;;;;;;19.46;100.00;100699.41;4867479;29;20451;-78
2022/06/06 07:12:19;;;;;;;18.15;16.38;;;;;;;19.75;100.00;100699.59;4887234;23;20045;-77
2022/06/06 07:14:47;;;;;;;;;;;;;;;19.82;100.00;100709.88;4850546;29;20113;-78
2022/06/06 07:17:24;;;;;;;16.00;14.10;;;;;;;19.95;100.00;100712.72;4890024;29;19956;-78
2022/06/06 07:20:10;;;;;;;15.13;13.52;;;;;;;20.11;100.00;100713.53;4878970;29;20097;-78
2022/06/06 07:23:21;;;;;;;;;;;;;;;;;;;;;
2022/06/06 07:25:56;;;;;;;;;;;;;;;20.79;100.00;100700.47;4855966;29;20097;-77
2022/06/06 07:29:01;;;;;;;14.27;12.77;;;;;;;21.28;100.00;100708.16;4857066;29;19980;-77
2022/06/06 07:31:49;;;;;;;14.07;12.77;;;;;;;21.88;100.00;100705.09;4826495;29;20056;-78
2022/06/06 07:34:52;;;;;;;13.75;12.35;;;;;;;22.25;100.00;100705.31;4846246;29;20062;-78
2022/06/06 07:37:40;;;;;;;13.65;11.90;;;;;;;22.31;100.00;100704.91;4850155;29;20078;-77
2022/06/06 07:41:00;;;;;;;11.40;10.40;;;;;;;22.60;100.00;100705.56;4877011;29;20057;-78
2022/06/06 07:43:41;;;;;;;11.48;10.32;;;;;;;22.76;100.00;100703.53;4870295;29;20045;-78
2022/06/06 07:46:45;;;;;;;11.77;10.65;;;;;;;23.07;100.00;100704.06;4848474;29;20653;-77
2022/06/06 07:49:44;;;;;;;10.50;9.52;;;;;;;23.14;98.99;100699.97;4858624;29;20045;-77
2022/06/06 07:52:56;;;;;;;10.32;9.32;;;;;;;22.94;87.35;100701.38;4873448;29;20074;-78
2022/06/06 07:56:09;;;;;;;9.48;8.57;;;;;;;22.41;94.77;100697.91;4861551;29;20053;-77
2022/06/06 07:59:08;;;;;;;8.65;7.80;;;;;;;22.36;96.57;100693.81;4814961;29;20056;-78
2022/06/06 08:02:03;;;;;;;10.30;8.95;;;;;;;22.76;94.06;100694.56;4844831;29;20126;-77
2022/06/06 08:05:13;;;;;;;9.43;8.52;;;;;;;23.21;88.83;100686.91;4863334;29;20045;-78
2022/06/06 08:08:18;;;;;;;8.55;7.75;;;;;;;23.48;87.36;100689.41;4876906;29;20049;-78
2022/06/06 08:10:50;;;;;;;9.90;8.90;;;;;;;23.39;78.05;100690.09;4872834;29;20088;-78
2022/06/06 08:13:59;;;;;;;9.57;8.65;;;;;;;23.80;81.39;100692.44;4858785;29;20049;-78
2022/06/06 08:16:43;;;;;;;9.75;8.85;;;;;;;23.73;77.35;100691.19;4843990;29;20045;-78
2022/06/06 08:19:22;;;;;;;8.93;8.07;;;;;;;23.41;83.35;100694.41;4853803;29;20109;-77
2022/06/06 08:21:50;;;;;;;10.55;8.48;;;;;;;23.12;83.12;100690.25;4877921;29;20044;-78
2022/06/06 08:24:24;;;;;;;9.35;8.52;;;;;;;22.72;83.62;100691.25;4864028;29;20041;-78
2022/06/06 08:27:13;;;;;;;9.95;8.90;;;;;;;22.37;86.53;100696.41;4849197;29;20518;-79
2022/06/06 08:29:43;;;;;;;10.23;9.13;;;;;;;22.38;86.26;100698.13;4863324;29;20115;-79
2022/06/06 08:32:10;;;;;;;10.13;8.45;;;;;;;22.42;86.13;100702.31;4879938;29;20098;-80
2022/06/06 08:34:38;;;;;;;8.88;8.07;;;;;;;22.21;83.41;100697.56;4847025;29;20049;-79
2022/06/06 08:37:27;;;;;;;10.38;9.38;;;;;;;22.31;86.60;100701.34;4850924;29;20072;-79
2022/06/06 09:16:59;;;;;;;8.52;7.47;;;;;;;22.72;78.91;100695.78;4851033;29;20115;-78
2022/06/06 09:19:53;;;;;;;9.20;8.25;;;;;;;22.94;73.61;100696.00;4808083;29;20126;-78
2022/06/06 09:22:47;;;;;;;7.90;7.10;;;;;;;23.08;73.44;100683.38;4798549;29;20046;-79
2022/06/06 09:25:52;;;;;;;8.32;7.53;;;;;;;23.37;74.92;100684.78;4830315;29;20043;-78
2022/06/06 09:28:30;;;;;;;13.18;8.05;;;;;;;23.40;72.36;100694.50;4781620;29;20134;-78
2022/06/06 09:31:37;;;;;;;8.90;7.95;;;;;;;23.24;74.68;100684.00;4821007;29;20569;-78
2022/06/06 09:34:39;;;;;;;9.32;8.15;;;;;;;23.00;73.16;100698.25;4834446;29;20042;-79
2022/06/06 09:37:37;;;;;;;8.95;8.07;;;;;;;23.27;77.19;100689.16;4814758;29;20035;-78
2022/06/06 09:40:13;;;;;;;8.93;8.02;;;;;;;24.04;71.66;100682.47;4815610;29;20047;-80
2022/06/06 09:42:50;;;;;;;11.20;8.40;;;;;;;24.32;68.59;100686.66;4819601;29;20054;-77
2022/06/06 09:45:31;;;;;;;8.10;7.30;;;;;;;24.50;65.83;100691.59;4817853;29;20592;-77
2022/06/06 09:48:23;;;;;;;7.57;6.80;;;;;;;24.09;65.11;100684.84;4814366;29;20083;-78
2022/06/06 09:51:02;;;;;;;8.82;8.02;;;;;;;23.95;66.26;100687.72;4803414;29;20053;-79
2022/06/06 09:59:01;;;;;;;7.72;6.93;;;;;;;23.74;70.79;100692.91;4809533;29;20163;-80
2022/06/06 09:59:54;;;;;;;10.05;6.93;;;;;;;24.45;65.30;100678.44;4802585;29;20042;-78
2022/06/06 10:02:39;;;;;;;7.22;6.53;;;;;;;24.54;61.72;100683.13;4833468;29;20121;-77
2022/06/06 10:05:15;;;;;;;6.18;5.57;;;;;;;24.80;60.59;100685.63;4837964;29;20488;-77
2022/06/06 10:08:25;;;;;;;6.70;6.05;;;;;;;24.42;59.47;100681.41;4820061;29;20046;-77
2022/06/06 10:11:29;;;;;;;7.55;6.82;;;;;;;24.31;63.64;100686.75;4818313;29;20042;-77
2022/06/06 10:14:11;;;;;;;6.53;5.90;;;;;;;24.12;65.80;100687.28;4823377;29;20091;-77
2022/06/06 10:17:05;;;;;;;6.97;6.28;;;;;;;24.06;65.67;100688.63;4823623;29;20051;-78
2022/06/06 10:19:43;;;;;;;;;;;;;;;24.07;63.36;100690.34;4800209;29;20051;-77
2022/06/06 10:22:25;;;;;;;7.30;6.60;;;;;;;24.03;63.59;100690.69;4809366;29;19928;-77
2022/06/06 10:25:05;;;;;;;7.13;6.40;;;;;;;24.26;62.01;100689.78;4809693;29;20062;-78
2022/06/06 10:27:56;;;;;;;7.30;6.60;;;;;;;24.73;62.31;100687.09;4840609;29;20441;-77
2022/06/06 10:30:49;;;;;;;6.85;6.13;;;;;;;25.20;60.08;100691.41;4828452;29;20046;-78
2022/06/06 10:33:16;;;;;;;7.65;6.35;;;;;;;25.73;58.92;100688.91;4822496;29;20050;-77
2022/06/06 10:36:04;;;;;;;6.18;5.65;;;;;;;25.26;57.37;100689.09;4819603;29;20050;-78
2022/06/06 10:39:06;;;;;;;6.68;5.97;;;;;;;25.25;60.95;100695.47;4840273;29;20060;-78
2022/06/06 10:42:11;;;;;;;6.57;5.97;;;;;;;24.85;61.27;100695.09;4810079;29;20066;-77
2022/06/06 10:45:27;;;;;;;6.90;5.07;;;;;;;24.55;65.18;100695.69;4822492;29;20046;-78
2022/06/06 10:48:16;;;;;;;6.35;5.75;;;;;;;25.28;59.53;100686.25;4829217;29;20096;-78
2022/06/06 10:53:54;;;;;;;6.60;5.93;;;;;;;26.06;56.85;100691.47;4824230;29;20046;-78
2022/06/06 10:56:54;;;;;;;5.65;5.00;;;;;;;25.68;54.15;100678.41;4823809;29;20050;-77
2022/06/06 10:59:49;;;;;;;5.60;5.10;;;;;;;25.22;57.26;100684.91;4839793;29;20516;-78
2022/06/06 11:02:38;;;;;;;6.78;6.13;;;;;;;25.12;59.06;100692.03;4817291;29;20044;-78
2022/06/06 11:05:27;;;;;;;5.60;5.10;;;;;;;24.59;60.45;100691.75;4818949;29;20042;-77
2022/06/06 11:08:13;;;;;;;6.25;5.65;;;;;;;24.57;61.69;100695.56;4822944;29;20450;-78
2022/06/06 11:11:09;;;;;;;5.63;5.13;;;;;;;24.57;59.84;100691.00;4809464;29;20061;-79
2022/06/06 11:13:35;;;;;;;6.43;5.80;;;;;;;24.59;61.05;100686.34;4812490;29;20061;-78
2022/06/06 11:16:33;;;;;;;5.38;4.88;;;;;;;24.76;57.88;100686.84;4824379;29;20042;-79
2022/06/06 11:19:35;;;;;;;6.60;6.00;;;;;;;25.31;56.46;100690.53;4818184;29;20608;-78
2022/06/06 11:22:08;;;;;;;5.32;4.82;;;;;;;25.45;56.18;100695.69;4827543;29;20508;-78
2022/06/06 11:24:56;;;;;;;5.70;5.20;;;;;;;25.61;57.48;100677.19;4808816;29;20050;-78
2022/06/06 11:27:35;;;;;;;6.68;5.00;;;;;;;25.83;56.90;100681.72;4806033;29;20517;-79
2022/06/06 11:30:26;;;;;;;5.18;4.68;;;;;;;25.64;52.88;100690.47;4834047;29;20054;-78
2022/06/06 11:33:44;;;;;;;5.00;4.55;;;;;;;25.87;54.84;100679.59;4827104;29;20057;-78
2022/06/06 11:36:40;;;;;;;5.10;4.60;;;;;;;26.41;52.34;100682.22;4782019;29;20065;-77
2022/06/06 11:39:20;;;;;;;5.18;4.38;;;;;;;26.27;53.08;100677.06;4811649;29;20981;-77
2022/06/06 11:42:05;;;;;;;5.07;4.57;;;;;;;26.61;54.28;100683.16;4811777;29;20050;-78
2022/06/06 11:45:05;;;;;;;5.30;4.80;;;;;;;26.28;50.48;100673.38;4821848;29;20561;-78
2022/06/06 11:47:51;;;;;;;5.95;4.28;;;;;;;26.36;51.00;100676.28;4822133;29;20517;-78
2022/06/06 11:50:47;;;;;;;5.07;4.03;;;;;;;26.35;50.46;100686.25;4831662;29;20107;-77
2022/06/06 11:54:06;;;;;;;4.45;4.05;;;;;;;26.43;49.63;100682.06;4837170;29;20046;-77
2022/06/06 11:56:55;;;;;;;5.05;3.95;;;;;;;26.53;49.04;100680.28;4831945;29;22129;-77
2022/06/06 11:59:52;;;;;;;4.65;4.20;;;;;;;26.52;50.55;100668.56;4828361;29;20046;-77
2022/06/06 12:02:31;;;;;;;4.45;4.05;;;;;;;26.40;51.75;100683.16;4831864;29;20129;-78
2022/06/06 12:05:17;;;;;;;4.50;3.65;;;;;;;26.30;48.33;100677.66;4828733;29;20505;-77
2022/06/06 12:07:58;;;;;;;4.88;4.45;;;;;;;26.25;49.95;100670.94;4843675;29;20279;-77
2022/06/06 12:10:27;;;;;;;5.22;3.97;;;;;;;25.99;52.04;100678.59;4842198;29;20042;-76
2022/06/06 12:13:00;;;;;;;4.28;3.58;;;;;;;25.74;51.66;100683.34;4810961;29;20107;-77
2022/06/06 12:15:54;;;;;;;6.82;3.80;;;;;;;25.66;51.61;100682.25;4816437;29;20051;-77
2022/06/06 12:18:30;;;;;;;4.47;3.75;;;;;;;25.60;50.31;100678.19;4826872;29;20481;-76
2022/06/06 12:21:28;;;;;;;5.15;4.38;;;;;;;25.79;49.81;100686.50;4827532;29;20095;-79
2022/06/06 12:24:23;;;;;;;4.30;3.90;;;;;;;26.04;51.91;100676.31;4792234;29;20104;-76
2022/06/06 12:27:10;;;;;;;4.63;4.20;;;;;;;26.07;51.48;100678.78;4825626;29;20038;-79
2022/06/06 12:30:05;;;;;;;5.35;4.57;;;;;;;26.02;48.50;100673.75;4825192;29;20047;-77
2022/06/06 12:32:52;;;;;;;9.38;4.88;;;;;;;26.15;49.40;100675.41;4824428;29;20054;-78
2022/06/06 12:35:41;;;;;;;4.35;3.75;;;;;;;26.13;48.49;100671.97;4823194;29;20049;-79
2022/06/06 12:38:39;;;;;;;3.80;3.50;;;;;;;26.00;48.85;100677.59;4825865;29;20054;-78
2022/06/06 12:41:37;;;;;;;4.75;4.30;;;;;;;25.87;49.58;100676.91;4828131;29;20053;-79
2022/06/06 12:44:46;;;;;;;4.72;3.92;;;;;;;25.70;49.32;100673.72;4814050;29;20510;-78
2022/06/06 12:47:48;;;;;;;6.03;4.10;;;;;;;25.75;50.55;100671.53;4818134;29;20068;-78
2022/06/06 12:50:36;;;;;;;7.03;4.70;;;;;;;25.76;49.81;100673.25;4822426;29;20104;-76
2022/06/06 12:53:25;;;;;;;5.05;3.72;;;;;;;25.95;49.23;100672.56;4845139;29;20110;-78
2022/06/06 12:56:20;;;;;;;4.90;4.40;;;;;;;26.05;49.02;100661.78;4843154;29;20050;-76
2022/06/06 12:59:22;;;;;;;5.18;4.20;;;;;;;26.25;49.26;100668.22;4836968;29;20050;-79
2022/06/06 13:01:57;;;;;;;6.03;5.15;;;;;;;25.91;46.89;100670.25;4800751;29;20050;-78
2022/06/06 13:04:58;;;;;;;5.88;5.20;;;;;;;25.74;47.41;100659.00;4818514;29;20050;-78
2022/06/06 13:07:34;;;;;;;6.88;5.10;;;;;;;25.86;46.66;100657.09;4820894;29;20090;-76
2022/06/06 13:10:08;;;;;;;5.25;4.40;;;;;;;25.89;49.75;100658.66;4834430;29;20445;-78
2022/06/06 13:13:00;;;;;;;6.13;5.38;;;;;;;26.18;51.54;100650.78;4807146;29;20050;-77
2022/06/06 13:15:42;;;;;;;6.63;4.95;;;;;;;26.27;49.25;100663.53;4826429;29;20147;-78
2022/06/06 13:18:17;;;;;;;6.43;4.97;;;;;;;26.08;48.99;100656.13;4811438;29;20050;-78
2022/06/06 13:21:14;;;;;;;5.07;4.63;;;;;;;25.96;48.45;100657.16;4826184;29;20050;-75
2022/06/06 13:24:05;;;;;;;6.35;4.97;;;;;;;25.92;47.91;100655.72;4823507;29;20051;-76
2022/06/06 13:26:46;;;;;;;6.47;4.45;;;;;;;25.93;48.43;100663.72;4812577;29;20061;-78